<?xml version='1.0' encoding='UTF-8'?>
<gpx xmlns="http://www.topografix.com/GPX/1/1" creator="www.balnam.be" version="1.1" xmlns:xsi="http://www.w3.org/2001/XMLSchema-instance" xsi:schemaLocation="http://www.topografix.com/GPX/1/1 http://www.topografix.com/GPX/1/1/gpx.xsd">
<trk>
<name>hbcrq3</name>
<cmt>d</cmt>
<desc>Ronquières Chemin n°3 Rue Pied d'Eau / Charly des Bois</desc>
<link href="https://chemins.be/ronquieres/chemin/3"/><trkseg>
<trkpt lat="50.616257" lon="4.227674"><time>2026-05-03T07:33:24Z</time></trkpt>
<trkpt lat="50.616382" lon="4.226727"><time>2026-05-03T07:43:24Z</time></trkpt>
</trkseg></trk>
<trk>
<name>hbcrq3</name>
<cmt>s</cmt>
<desc>Ronquières Chemin n°3 Rue Pied d'Eau / Charly des Bois</desc>
<link href="https://chemins.be/ronquieres/chemin/3"/><trkseg>
<trkpt lat="50.616382" lon="4.226727"><time>2026-05-03T07:43:24Z</time></trkpt>
<trkpt lat="50.616444" lon="4.226218"><time>2026-05-03T07:53:24Z</time></trkpt>
<trkpt lat="50.616732" lon="4.226415"><time>2026-05-03T08:03:24Z</time></trkpt>
<trkpt lat="50.617154" lon="4.226004"><time>2026-05-03T08:13:24Z</time></trkpt>
</trkseg></trk>
<trk>
<name>hbcrq3</name>
<cmt>b</cmt>
<desc>Ronquières Chemin n°3 Rue Pied d'Eau / Charly des Bois</desc>
<link href="https://chemins.be/ronquieres/chemin/3"/><trkseg>
<trkpt lat="50.617154" lon="4.226004"><time>2026-05-03T08:13:24Z</time></trkpt>
<trkpt lat="50.617308" lon="4.225164"><time>2026-05-03T08:23:24Z</time></trkpt>
</trkseg></trk>
<trk>
<name>hbcrq3</name>
<cmt>v</cmt>
<desc>Ronquières Chemin n°3 Rue Pied d'Eau / Charly des Bois</desc>
<link href="https://chemins.be/ronquieres/chemin/3"/><trkseg>
<trkpt lat="50.617308" lon="4.225164"><time>2026-05-03T08:23:24Z</time></trkpt>
<trkpt lat="50.617646" lon="4.223939"><time>2026-05-03T08:33:24Z</time></trkpt>
</trkseg></trk>
<trk>
<name>hbcrq3</name>
<cmt>r</cmt>
<desc>Ronquières Chemin n°3 Rue Pied d'Eau / Charly des Bois</desc>
<link href="https://chemins.be/ronquieres/chemin/3"/><trkseg>
<trkpt lat="50.617646" lon="4.223939"><time>2026-05-03T08:33:24Z</time></trkpt>
<trkpt lat="50.617366" lon="4.223248"><time>2026-05-03T08:43:24Z</time></trkpt>
<trkpt lat="50.617519" lon="4.223078"><time>2026-05-03T08:53:24Z</time></trkpt>
<trkpt lat="50.617858" lon="4.221437"><time>2026-05-03T09:03:24Z</time></trkpt>
<trkpt lat="50.617857" lon="4.220109"><time>2026-05-03T09:13:24Z</time></trkpt>
<trkpt lat="50.617630" lon="4.218400"><time>2026-05-03T09:23:24Z</time></trkpt>
<trkpt lat="50.617942" lon="4.216520"><time>2026-05-03T09:33:24Z</time></trkpt>
<trkpt lat="50.617625" lon="4.214882"><time>2026-05-03T09:43:24Z</time></trkpt>
<trkpt lat="50.617865" lon="4.212295"><time>2026-05-03T09:53:24Z</time></trkpt>
<trkpt lat="50.617945" lon="4.211687"><time>2026-05-03T10:03:24Z</time></trkpt>
<trkpt lat="50.617942" lon="4.209935"><time>2026-05-03T10:13:24Z</time></trkpt>
<trkpt lat="50.618210" lon="4.208408"><time>2026-05-03T10:23:24Z</time></trkpt>
<trkpt lat="50.618128" lon="4.207362"><time>2026-05-03T10:33:24Z</time></trkpt>
<trkpt lat="50.618125" lon="4.205398"><time>2026-05-03T10:43:24Z</time></trkpt>
<trkpt lat="50.618688" lon="4.202754"><time>2026-05-03T10:53:24Z</time></trkpt>
<trkpt lat="50.619062" lon="4.200265"><time>2026-05-03T11:03:24Z</time></trkpt>
<trkpt lat="50.619471" lon="4.197720"><time>2026-05-03T11:13:24Z</time></trkpt>
</trkseg>
</trk>
</gpx>